CYKZ

Buttonville Municipal Airport

Toronto, Ontario, Canada
METAR CYKZ 170300Z 24007KT 210V290 15SM FEW093 BKN140 09/M01 A2987 RMK AC1AS6 SLP119
Observed Flight Rules
Oct-17 @ 03:00 UTC (12 minutes ago) Visual Flight Rules
Wind Visibility Clouds
240° at 7 knots 15 miles
  • Few at 9,300' AGL
  • Broken at 14,000' AGL
Temperatures Readings
Current 9°C / 48°F
Dewpoint -1°C / 30°F
Humidity 50%
Altimeter 29.87" Hg
Pressure 1011.9 hPa
Elevation 198
METAR CYKZ 170300Z 24007KT 210V290 15SM FEW093 BKN140 09/M01 A2987 RMK AC1AS6 SLP119
Observed Flight Rules
Oct-17 @ 03:00 UTC
(12 minutes ago)
VFR
Wind Visibility
240° at 7 knots 15 miles
Clouds
  • Few at 9,300' AGL
  • Broken at 14,000' AGL
Temperature Dewpoint
9°C / 48°F -1°C / 30°F
Humidity Altimeter Pressure
50% 29.87" Hg 1011.9 hPa